Погода Махадаангана неделю

Антананариву, Мадагаскар

21 - 27 июля
  • 21июля
    Сегодня
    +16°
    +33°
    Небольшая облачность
    ВремяПогодаТемператураВлажностьДавлениеВетер, м/сВероятность осадков
    00:00Ясно и безоблачно+20°C75 %755 мм2.1 м/с5 %
    03:00Ясно и безоблачно+18°C86 %754 мм1.8 м/с5 %
    06:00Ясно и безоблачно+17°C86 %755 мм1.6 м/с5 %
    09:00Ясно и безоблачно+26°C51 %757 мм2.2 м/с5 %
    12:00Небольшая облачность+31°C37 %756 мм1.5 м/с5 %
    15:00Небольшая облачность+32°C28 %755 мм1.4 м/с5 %
    18:00Практически безоблачно+26°C37 %755 мм1.6 м/с5 %
    21:00Небольшая облачность+22°C47 %756 мм1.4 м/с5 %
  • 22июля
    Понедельник
    +16°
    +34°
    Ясно и безоблачно
    ВремяПогодаТемператураВлажностьДавлениеВетер, м/сВероятность осадков
    00:00Ясно и безоблачно+20°C54 %756 мм1.7 м/с5 %
    03:00Ясно и безоблачно+18°C70 %755 мм1.5 м/с5 %
    06:00Практически безоблачно+18°C78 %756 мм0.8 м/с5 %
    09:00Небольшая облачность+26°C54 %758 мм1.1 м/с5 %
    12:00Ясно и безоблачно+32°C33 %756 мм1.7 м/с5 %
    15:00Ясно и безоблачно+33°C28 %755 мм1.4 м/с5 %
    18:00Ясно и безоблачно+26°C41 %755 мм0.6 м/с5 %
    21:00Ясно и безоблачно+22°C50 %756 мм1.4 м/с5 %
  • 23июля
    Вторник
    +18°
    +34°
    Ясно и безоблачно
    ВремяПогодаТемператураВлажностьДавлениеВетер, м/сВероятность осадков
    00:00Ясно и безоблачно+20°C63 %757 мм1.4 м/с5 %
    03:00Ясно и безоблачно+18°C72 %756 мм1.8 м/с5 %
    06:00Ясно и безоблачно+17°C84 %757 мм1.1 м/с5 %
    09:00Ясно и безоблачно+26°C58 %758 мм1.2 м/с5 %
    12:00Ясно и безоблачно+32°C36 %756 мм0.7 м/с5 %
    15:00Ясно и безоблачно+33°C28 %755 мм1.0 м/с5 %
    18:00Ясно и безоблачно+28°C36 %755 мм0.8 м/с5 %
    21:00Небольшая облачность+23°C47 %756 мм1.6 м/с5 %
  • 24июля
    Среда
    +17°
    +34°
    Облачно с прояснениями
    ВремяПогодаТемператураВлажностьДавлениеВетер, м/сВероятность осадков
    00:00Облачно с прояснениями+22°C57 %757 мм1.9 м/с5 %
    03:00Небольшая облачность+20°C71 %756 мм1.8 м/с5 %
    06:00Небольшая облачность+18°C77 %756 мм1.8 м/с5 %
    09:00Небольшая облачность+27°C52 %757 мм2.3 м/с5 %
    12:00Облачно с прояснениями+32°C34 %756 мм2.6 м/с5 %
    15:00Облачно с прояснениями+34°C27 %753 мм1.1 м/с5 %
    18:00Облачно с прояснениями+28°C39 %754 мм1.3 м/с5 %
    21:00Небольшая облачность+25°C43 %755 мм2.8 м/с5 %
Мы используем cookies
Соглашаюсь